Osnabrock, ND (58269)

08:00 AM CDT die 30o July, anno 2016 (GMT -0500)
Roder Farms | | Change Station

Elev 1604 ft 48.70 °N, 98.15 °W | Updated 7 seconds ago

Clear
Serena
65.5 °F
Feels Like 65.5 °F
N
6.9
Ventus Variabilis Ventus from Magis Eurus quam Auster
Gusts 10.0 mph

Hodie
High -- | Low -- °F
--% Chance of Precip.
Yesterday
High -- | Low -- °F
Precip. -- in
Pressio 29.95 in
Visibilitas 10.0 milia passuum
Clouds Serena
Frigus in quo Ros apparet 64 °F
Umor 94%
Rainfall 0.05 in
Snow Depth Not available.
6:05 AM 9:12 PM
Waning Crescent, 13% visible
METAR KD55 301255Z AUTO 13007KT 10SM CLR 18/18 A2995 RMK AO2
Pressio 29.95 in
Visibilitas 10.0 milia passuum
Clouds Serena
Frigus in quo Ros apparet 64 °F
Umor 94%
Rainfall 0.05 in
Snow Depth Not available.
6:05 AM 9:12 PM
Waning Crescent, 13% visible
METAR KD55 301255Z AUTO 13007KT 10SM CLR 18/18 A2995 RMK AO2

10-Day Weather Forecast

Almanac

Astronomy

Jul. 30, 2016 Rise Set
Actual Time
Civil Twilight
Nautical Twilight
Astronomical Twilight
Moon
Length Of Visible Light
Length of Day
Tomorrow will be .
, % of the Moon is Illuminated

Today's Extremes

State Highs State Lows

Community

WunderPhotos

Upload Photos

1,928,545 photos uploaded!

WunderBlog® & News

Nearby

Air Quality

  Air Quality AQ Index Pollutant
Not available.

Snow Depth

Station Depth Elevation

Earthquake Activity

City Distance Mag. Time & Date
Minimum magnitude displayed is 2.5.

Coastal Water Temperatures

Locus Calor

Stations

Nearby Weather Stations

Station Location Temp Frigus Venti Frigus in quo Ros apparet Umor Ventus Precip. Elev Renovata Type
                   

Watches & Warnings

There are currently no watches in effect.